Time;durP1;ratioP1;P1;durP2;ratioP2;P2;SDS_P1;SDS_P2;PMS_P1;PMS_P2;Temp;Humidity;BMP_temperature;BMP_pressure;BME280_temperature;BME280_humidity;BME280_pressure;Samples;Min_cycle;Max_cycle;Signal;HPM_P1;HPM_P2
2023/03/18 00:02:02;;;;;;;;;;;9.30;99.90;;;;;;4979018;28;19953;-88
2023/03/18 00:04:29;;;;;;;;;;;9.30;99.90;;;;;;4964191;28;20392;-89
2023/03/18 00:06:56;;;;;;;;;;;9.30;99.90;;;;;;4979122;28;20420;-88
2023/03/18 00:09:22;;;;;;;;;;;9.30;99.90;;;;;;4983607;28;19942;-88
2023/03/18 00:11:49;;;;;;;;;;;9.30;99.90;;;;;;4966315;28;19961;-88
2023/03/18 00:14:16;;;;;;;;;;;9.20;99.90;;;;;;4983263;28;19952;-88
2023/03/18 00:16:44;;;;;;;;;;;9.20;99.90;;;;;;4982468;28;19977;-88
2023/03/18 00:19:11;;;;;;;;;;;9.20;99.90;;;;;;4977483;28;19993;-89
2023/03/18 00:21:38;;;;;;;;;;;9.20;99.90;;;;;;4977939;28;19926;-88
2023/03/18 00:24:05;;;;;;;;;;;9.20;99.90;;;;;;4967188;28;20033;-88
2023/03/18 00:26:32;;;;;;;;;;;9.20;99.90;;;;;;4969104;28;20368;-88
2023/03/18 00:28:59;;;;;;;;;;;9.20;99.90;;;;;;4971524;28;19926;-88
2023/03/18 00:31:27;;;;;;;;;;;9.20;99.90;;;;;;4986185;28;19930;-89
2023/03/18 00:33:56;;;;;;;;;;;9.20;99.90;;;;;;4983325;28;19968;-89
2023/03/18 00:36:24;;;;;;;;;;;9.20;99.90;;;;;;4977200;28;19985;-88
2023/03/18 00:38:56;;;;;;;;;;;9.20;99.90;;;;;;4978266;28;20226;-88
2023/03/18 00:41:24;;;;;;;;;;;9.20;99.90;;;;;;4981087;28;20405;-88
2023/03/18 00:43:52;;;;;;;;;;;9.10;99.90;;;;;;4972187;28;19973;-88
2023/03/18 00:46:21;;;;;;;;;;;9.20;99.90;;;;;;4989137;28;19942;-87
2023/03/18 00:48:48;;;;;;;;;;;9.10;99.90;;;;;;4971608;28;20341;-88
2023/03/18 00:51:17;;;;;;;;;;;9.10;99.90;;;;;;4984993;28;19934;-88
2023/03/18 00:53:45;;;;;;;;;;;9.10;99.90;;;;;;4986436;28;19948;-88
2023/03/18 00:56:12;;;;;;;;;;;9.00;99.90;;;;;;4982410;28;19926;-88
2023/03/18 00:58:39;;;;;;;;;;;9.10;99.90;;;;;;4985149;28;19933;-88
2023/03/18 01:01:07;;;;;;;;;;;9.00;99.90;;;;;;4971666;28;19950;-89
2023/03/18 01:03:35;;;;;;;;;;;9.00;99.90;;;;;;4984222;28;19936;-88
2023/03/18 01:06:03;;;;;;;;;;;9.00;99.90;;;;;;4972292;28;19985;-88
2023/03/18 01:08:32;;;;;;;;;;;9.00;99.90;;;;;;4977844;28;20407;-89
2023/03/18 01:10:59;;;;;;;;;;;9.00;99.90;;;;;;4987762;28;19936;-89
2023/03/18 01:13:26;;;;;;;;;;;9.00;99.90;;;;;;4984982;28;19958;-88
2023/03/18 01:15:53;;;;;;;;;;;8.90;99.90;;;;;;4983633;28;19926;-88
2023/03/18 01:18:20;;;;;;;;;;;8.90;99.90;;;;;;4980641;28;19933;-88
2023/03/18 01:20:47;;;;;;;;;;;8.90;99.90;;;;;;4977176;28;20433;-88
2023/03/18 01:23:16;;;;;;;;;;;8.90;99.90;;;;;;4963832;28;20026;-89
2023/03/18 01:25:44;;;;;;;;;;;8.80;99.90;;;;;;4975904;28;19926;-89
2023/03/18 01:28:16;;;;;;;;;;;8.80;99.90;;;;;;4995899;28;20292;-88
2023/03/18 01:30:43;;;;;;;;;;;8.80;99.90;;;;;;4977379;28;19935;-88
2023/03/18 01:33:10;;;;;;;;;;;8.80;99.90;;;;;;4993729;28;19926;-88
2023/03/18 01:35:38;;;;;;;;;;;8.80;99.90;;;;;;4986735;28;20396;-88
2023/03/18 01:38:05;;;;;;;;;;;8.80;99.90;;;;;;4985660;28;19926;-89
2023/03/18 01:40:34;;;;;;;;;;;8.80;99.90;;;;;;4983438;28;20059;-88
2023/03/18 01:43:15;;;;;;;;;;;8.80;99.90;;;;;;4991132;28;20136;-88
2023/03/18 01:45:43;;;;;;;;;;;8.80;99.90;;;;;;4992335;28;20301;-88
2023/03/18 01:48:14;;;;;;;;;;;8.80;99.90;;;;;;4978914;28;20311;-89
2023/03/18 01:50:42;;;;;;;;;;;8.70;99.90;;;;;;4982887;28;19969;-88
2023/03/18 01:53:10;;;;;;;;;;;8.70;99.90;;;;;;4977780;28;20072;-88
2023/03/18 01:55:38;;;;;;;;;;;8.70;99.90;;;;;;4983248;28;19933;-88
2023/03/18 01:58:09;;;;;;;;;;;8.70;99.90;;;;;;4978619;28;19930;-88
2023/03/18 02:00:38;;;;;;;;;;;8.70;99.90;;;;;;4967676;28;19929;-88
2023/03/18 02:03:05;;;;;;;;;;;8.70;99.90;;;;;;4980812;28;19929;-89
2023/03/18 02:05:33;;;;;;;;;;;8.70;99.90;;;;;;4985031;28;19977;-88
2023/03/18 02:08:00;;;;;;;;;;;8.70;99.90;;;;;;4974134;28;19963;-88
2023/03/18 02:10:28;;;;;;;;;;;8.60;99.90;;;;;;4977413;28;19961;-88
2023/03/18 02:13:01;;;;;;;;;;;8.60;99.90;;;;;;4980636;28;19930;-88
2023/03/18 02:15:36;;;;;;;;;;;8.60;99.90;;;;;;4988328;28;20387;-89
2023/03/18 02:18:05;;;;;;;;;;;8.60;99.90;;;;;;4990125;28;20608;-88
2023/03/18 02:20:37;;;;;;;;;;;8.60;99.90;;;;;;4962767;28;20233;-89
2023/03/18 02:23:09;;;;;;;;;;;8.60;99.90;;;;;;4987836;28;20374;-88
2023/03/18 02:25:39;;;;;;;;;;;8.60;99.90;;;;;;4985180;28;19973;-88
2023/03/18 02:28:09;;;;;;;;;;;8.60;99.90;;;;;;4970139;28;20400;-88
2023/03/18 02:30:39;;;;;;;;;;;8.50;99.90;;;;;;4993721;28;19980;-88
2023/03/18 02:33:08;;;;;;;;;;;8.50;99.90;;;;;;4985350;28;20341;-88
2023/03/18 02:35:36;;;;;;;;;;;8.50;99.90;;;;;;4980171;28;19926;-89
2023/03/18 02:38:04;;;;;;;;;;;8.50;99.90;;;;;;4978360;28;19966;-87
2023/03/18 02:40:31;;;;;;;;;;;8.50;99.90;;;;;;4964407;28;20187;-88
2023/03/18 02:43:15;;;;;;;;;;;8.40;99.90;;;;;;4991381;28;19933;-88
2023/03/18 02:45:48;;;;;;;;;;;8.50;99.90;;;;;;4996040;28;19914;-88
2023/03/18 02:48:17;;;;;;;;;;;8.40;99.90;;;;;;5005896;28;20002;-88
2023/03/18 02:50:44;;;;;;;;;;;8.40;99.90;;;;;;4990224;28;19970;-88
2023/03/18 02:53:11;;;;;;;;;;;8.40;99.90;;;;;;4966927;28;19934;-88
2023/03/18 02:55:38;;;;;;;;;;;8.40;99.90;;;;;;4982189;28;20282;-88
2023/03/18 02:58:07;;;;;;;;;;;8.40;99.90;;;;;;4970320;28;20320;-88
2023/03/18 03:00:37;;;;;;;;;;;8.40;99.90;;;;;;4978223;28;20336;-88
2023/03/18 03:03:04;;;;;;;;;;;8.40;99.90;;;;;;4981964;28;19970;-88
2023/03/18 03:05:32;;;;;;;;;;;8.30;99.90;;;;;;4977577;28;20296;-88
2023/03/18 03:07:59;;;;;;;;;;;8.30;99.90;;;;;;4985598;28;19950;-89
2023/03/18 03:10:27;;;;;;;;;;;8.30;99.90;;;;;;4981037;28;19972;-88
2023/03/18 03:12:55;;;;;;;;;;;8.30;99.90;;;;;;4980832;28;20026;-89
2023/03/18 03:15:22;;;;;;;;;;;8.30;99.90;;;;;;4958708;28;19969;-88
2023/03/18 03:17:56;;;;;;;;;;;8.30;99.90;;;;;;4981636;28;19926;-88
2023/03/18 03:20:23;;;;;;;;;;;8.30;99.90;;;;;;4980770;28;19934;-88
2023/03/18 03:22:52;;;;;;;;;;;8.30;99.90;;;;;;4967658;28;19926;-88
2023/03/18 03:25:19;;;;;;;;;;;8.30;99.90;;;;;;4975305;28;20349;-88
2023/03/18 03:27:47;;;;;;;;;;;8.20;99.90;;;;;;4964979;28;19926;-89
2023/03/18 03:30:15;;;;;;;;;;;8.20;99.90;;;;;;4979572;28;19977;-88
2023/03/18 03:32:42;;;;;;;;;;;8.20;99.90;;;;;;4975569;28;19933;-89
2023/03/18 03:35:12;;;;;;;;;;;8.20;99.90;;;;;;4983630;28;19937;-88
2023/03/18 03:37:39;;;;;;;;;;;8.20;99.90;;;;;;4984873;28;19930;-88
2023/03/18 03:40:07;;;;;;;;;;;8.20;99.90;;;;;;4972903;28;20379;-88
2023/03/18 03:42:33;;;;;;;;;;;8.20;99.90;;;;;;4967051;28;19981;-88
2023/03/18 03:45:00;;;;;;;;;;;8.20;99.90;;;;;;4981597;28;19934;-87
2023/03/18 03:47:28;;;;;;;;;;;8.10;99.90;;;;;;4975526;28;20468;-88
2023/03/18 03:49:55;;;;;;;;;;;8.10;99.90;;;;;;4978446;28;19932;-88
2023/03/18 03:52:23;;;;;;;;;;;8.10;99.90;;;;;;4979811;28;19926;-88
2023/03/18 03:54:50;;;;;;;;;;;8.10;99.90;;;;;;4965489;28;20384;-87
2023/03/18 03:57:17;;;;;;;;;;;8.10;99.90;;;;;;4974315;28;19934;-88
2023/03/18 03:59:44;;;;;;;;;;;8.10;99.90;;;;;;4986404;28;19933;-88
2023/03/18 04:02:22;;;;;;;;;;;8.10;99.90;;;;;;4977545;28;19931;-88
2023/03/18 04:04:50;;;;;;;;;;;8.10;99.90;;;;;;4965278;28;19965;-88
2023/03/18 04:07:28;;;;;;;;;;;8.10;99.90;;;;;;4987452;28;19937;-87
2023/03/18 04:09:55;;;;;;;;;;;8.10;99.90;;;;;;4983297;28;19934;-88
2023/03/18 04:12:22;;;;;;;;;;;8.00;99.90;;;;;;4967417;28;19965;-88
2023/03/18 04:14:55;;;;;;;;;;;8.00;99.90;;;;;;4968715;28;19980;-89
2023/03/18 04:17:23;;;;;;;;;;;8.00;99.90;;;;;;4983726;28;19930;-87
2023/03/18 04:19:50;;;;;;;;;;;8.00;99.90;;;;;;4968594;28;19930;-88
2023/03/18 04:22:18;;;;;;;;;;;8.00;99.90;;;;;;4979578;28;19934;-88
2023/03/18 04:24:46;;;;;;;;;;;8.00;99.90;;;;;;4979329;28;19930;-88
2023/03/18 04:27:13;;;;;;;;;;;8.00;99.90;;;;;;4979846;28;20364;-87
2023/03/18 04:29:40;;;;;;;;;;;8.00;99.90;;;;;;4984383;28;19941;-88
2023/03/18 04:32:07;;;;;;;;;;;8.00;99.90;;;;;;4982017;28;20398;-88
2023/03/18 04:34:35;;;;;;;;;;;7.90;99.90;;;;;;4984585;28;20412;-90
2023/03/18 04:37:03;;;;;;;;;;;7.90;99.90;;;;;;4963670;28;19984;-88
2023/03/18 04:39:31;;;;;;;;;;;7.90;99.90;;;;;;4989993;28;19957;-86
2023/03/18 04:41:59;;;;;;;;;;;7.90;99.90;;;;;;4958072;28;19930;-90
2023/03/18 04:44:27;;;;;;;;;;;7.90;99.90;;;;;;4977283;28;20012;-90
2023/03/18 04:46:54;;;;;;;;;;;7.90;99.90;;;;;;4975114;28;20476;-90
2023/03/18 04:49:23;;;;;;;;;;;7.80;99.90;;;;;;4979528;28;20025;-87
2023/03/18 04:51:50;;;;;;;;;;;7.90;99.90;;;;;;4982712;28;19933;-88
2023/03/18 04:54:24;;;;;;;;;;;7.80;99.90;;;;;;4980923;28;20423;-88
2023/03/18 04:56:54;;;;;;;;;;;7.80;99.90;;;;;;4977972;28;19926;-90
2023/03/18 04:59:23;;;;;;;;;;;7.80;99.90;;;;;;4983542;28;19934;-90
2023/03/18 05:01:52;;;;;;;;;;;7.80;99.90;;;;;;4984275;28;20381;-90
2023/03/18 05:04:19;;;;;;;;;;;7.80;99.90;;;;;;4980644;28;20021;-90
2023/03/18 05:06:51;;;;;;;;;;;7.80;99.90;;;;;;4986717;28;19927;-87
2023/03/18 05:09:30;;;;;;;;;;;7.80;99.90;;;;;;4968520;28;19933;-88
2023/03/18 05:11:58;;;;;;;;;;;7.80;99.90;;;;;;4980032;28;19930;-88
2023/03/18 05:14:32;;;;;;;;;;;7.70;99.90;;;;;;4982705;28;19981;-90
2023/03/18 05:17:00;;;;;;;;;;;7.70;99.90;;;;;;4970448;28;20345;-90
2023/03/18 05:19:28;;;;;;;;;;;7.70;99.90;;;;;;4983793;28;20525;-90
2023/03/18 05:22:10;;;;;;;;;;;7.70;99.90;;;;;;4983144;28;19980;-90
2023/03/18 05:24:37;;;;;;;;;;;7.70;99.90;;;;;;4988590;28;19926;-90
2023/03/18 05:27:04;;;;;;;;;;;7.70;99.90;;;;;;4987786;28;19953;-89
2023/03/18 05:29:39;;;;;;;;;;;7.70;99.90;;;;;;4966776;28;19933;-90
2023/03/18 05:32:19;;;;;;;;;;;7.70;99.90;;;;;;4979165;28;19926;-89
2023/03/18 05:34:51;;;;;;;;;;;7.70;99.90;;;;;;4974225;28;20017;-90
2023/03/18 05:37:18;;;;;;;;;;;7.60;99.90;;;;;;4977587;28;19930;-90
2023/03/18 05:39:57;;;;;;;;;;;7.60;99.90;;;;;;4980825;28;20320;-91
2023/03/18 05:42:25;;;;;;;;;;;7.70;99.90;;;;;;4984314;28;20337;-90
2023/03/18 05:44:55;;;;;;;;;;;7.60;99.90;;;;;;4976982;28;20021;-90
2023/03/18 05:47:24;;;;;;;;;;;7.60;99.90;;;;;;4975312;28;20389;-90
2023/03/18 05:50:13;;;;;;;;;;;7.60;99.90;;;;;;4959245;28;19930;-90
2023/03/18 05:52:41;;;;;;;;;;;7.60;99.90;;;;;;4969108;28;20029;-90
2023/03/18 05:55:15;;;;;;;;;;;7.60;99.90;;;;;;4976887;28;19934;-89
2023/03/18 05:57:44;;;;;;;;;;;7.60;99.90;;;;;;4972196;28;19954;-90
2023/03/18 06:00:17;;;;;;;;;;;7.50;99.90;;;;;;4982399;28;20499;-90
2023/03/18 06:02:46;;;;;;;;;;;7.60;99.90;;;;;;4978322;28;19951;-90
2023/03/18 06:05:14;;;;;;;;;;;7.60;99.90;;;;;;4981039;28;19930;-90
2023/03/18 06:07:42;;;;;;;;;;;7.50;99.90;;;;;;4966776;28;20209;-89
2023/03/18 06:10:11;;;;;;;;;;;7.50;99.90;;;;;;4980744;28;19994;-90
2023/03/18 06:12:38;;;;;;;;;;;7.50;99.90;;;;;;4979868;28;19926;-90
2023/03/18 06:15:06;;;;;;;;;;;7.50;99.90;;;;;;4975558;28;19973;-90
2023/03/18 06:17:34;;;;;;;;;;;7.50;99.90;;;;;;4970203;28;20354;-89
2023/03/18 06:20:04;;;;;;;;;;;7.50;99.90;;;;;;4990197;28;20478;-90
2023/03/18 06:22:31;;;;;;;;;;;7.50;99.90;;;;;;4985310;28;19926;-90
2023/03/18 06:24:58;;;;;;;;;;;7.40;99.90;;;;;;4983625;28;20037;-90
2023/03/18 06:27:25;;;;;;;;;;;7.50;99.90;;;;;;4985876;28;19934;-89
2023/03/18 06:29:56;;;;;;;;;;;7.40;99.90;;;;;;5000946;28;19926;-90
2023/03/18 06:32:23;;;;;;;;;;;7.50;99.90;;;;;;4990861;28;19930;-89
2023/03/18 06:34:51;;;;;;;;;;;7.40;99.90;;;;;;4977384;28;20413;-90
2023/03/18 06:37:18;;;;;;;;;;;7.40;99.90;;;;;;4966912;28;19930;-90
2023/03/18 06:39:48;;;;;;;;;;;7.40;99.90;;;;;;4957715;28;19930;-90
2023/03/18 06:42:15;;;;;;;;;;;7.40;99.90;;;;;;4974428;28;20490;-90
2023/03/18 06:44:52;;;;;;;;;;;7.40;99.90;;;;;;4956822;28;19936;-91
2023/03/18 06:47:28;;;;;;;;;;;7.40;99.90;;;;;;4965851;28;19964;-89
2023/03/18 06:49:59;;;;;;;;;;;7.40;99.90;;;;;;4978364;28;19934;-89
2023/03/18 06:52:32;;;;;;;;;;;7.40;99.90;;;;;;4976703;28;19925;-90
2023/03/18 06:55:09;;;;;;;;;;;7.40;99.90;;;;;;4977768;28;19961;-89
2023/03/18 06:57:39;;;;;;;;;;;7.30;99.90;;;;;;4981293;28;19930;-89
2023/03/18 07:00:07;;;;;;;;;;;7.30;99.90;;;;;;4963724;28;19934;-90
2023/03/18 07:02:35;;;;;;;;;;;7.30;99.90;;;;;;4946524;28;19930;-90
2023/03/18 07:05:04;;;;;;;;;;;7.30;99.90;;;;;;4962314;28;20243;-90
2023/03/18 07:07:36;;;;;;;;;;;7.30;99.90;;;;;;4977602;28;19937;-89
2023/03/18 07:10:15;;;;;;;;;;;7.30;99.90;;;;;;4976077;28;19973;-90
2023/03/18 07:12:42;;;;;;;;;;;7.30;99.90;;;;;;4981971;28;19950;-88
2023/03/18 07:15:10;;;;;;;;;;;7.30;99.90;;;;;;4955890;28;19927;-86
2023/03/18 07:17:37;;;;;;;;;;;7.30;99.90;;;;;;4983175;28;20618;-85
2023/03/18 07:20:06;;;;;;;;;;;7.30;99.90;;;;;;4961765;28;19985;-86
2023/03/18 07:22:36;;;;;;;;;;;7.30;99.90;;;;;;4960166;28;19948;-86
2023/03/18 07:25:06;;;;;;;;;;;7.30;99.90;;;;;;4965186;28;19945;-87
2023/03/18 07:27:36;;;;;;;;;;;7.20;99.90;;;;;;4979248;28;20009;-85
2023/03/18 07:30:08;;;;;;;;;;;7.30;99.90;;;;;;4966782;28;19977;-85
2023/03/18 07:32:35;;;;;;;;;;;7.30;99.90;;;;;;4963701;28;19930;-85
2023/03/18 07:35:04;;;;;;;;;;;7.30;99.90;;;;;;4976797;28;20361;-84
2023/03/18 07:37:34;;;;;;;;;;;7.30;99.90;;;;;;4960186;28;19934;-85
2023/03/18 07:40:01;;;;;;;;;;;7.30;99.90;;;;;;4959520;28;19934;-84
2023/03/18 07:42:28;;;;;;;;;;;7.30;99.90;;;;;;4968243;28;19926;-84
2023/03/18 07:44:57;;;;;;;;;;;7.30;99.90;;;;;;4972022;28;19945;-85
2023/03/18 07:47:24;;;;;;;;;;;7.20;99.90;;;;;;4967346;28;19933;-84
2023/03/18 07:49:51;;;;;;;;;;;7.20;99.90;;;;;;4963377;28;19926;-91
2023/03/18 07:52:18;;;;;;;;;;;7.20;99.90;;;;;;4966704;28;20369;-90
2023/03/18 07:54:47;;;;;;;;;;;7.20;99.90;;;;;;4968229;28;19938;-90
2023/03/18 07:57:13;;;;;;;;;;;7.20;99.90;;;;;;4984876;28;20008;-90
2023/03/18 07:59:40;;;;;;;;;;;7.20;99.90;;;;;;4984522;28;20308;-91
2023/03/18 08:02:08;;;;;;;;;;;7.20;99.90;;;;;;4961287;28;19926;-90
2023/03/18 08:04:36;;;;;;;;;;;7.20;99.90;;;;;;4961835;28;19926;-91
2023/03/18 08:07:05;;;;;;;;;;;7.20;99.90;;;;;;4982420;28;20442;-90
2023/03/18 08:09:32;;;;;;;;;;;7.20;99.90;;;;;;4968197;28;19934;-90
2023/03/18 08:12:00;;;;;;;;;;;7.20;99.90;;;;;;4984538;28;19934;-89
2023/03/18 08:14:27;;;;;;;;;;;7.20;99.90;;;;;;4983409;28;19934;-90
2023/03/18 08:16:56;;;;;;;;;;;7.30;99.90;;;;;;4968402;28;19930;-90
2023/03/18 08:19:23;;;;;;;;;;;7.30;99.90;;;;;;4977225;28;20415;-89
2023/03/18 08:21:53;;;;;;;;;;;7.20;99.90;;;;;;4963834;28;19934;-91
2023/03/18 08:24:20;;;;;;;;;;;7.30;99.90;;;;;;4963493;28;19926;-90
2023/03/18 08:26:47;;;;;;;;;;;7.30;99.90;;;;;;4976653;28;19956;-91
2023/03/18 08:29:15;;;;;;;;;;;7.30;99.90;;;;;;4969166;28;19934;-90
2023/03/18 08:31:42;;;;;;;;;;;7.30;99.90;;;;;;4974569;28;20306;-86
2023/03/18 08:34:09;;;;;;;;;;;7.30;99.90;;;;;;4979912;28;19933;-85
2023/03/18 08:36:37;;;;;;;;;;;7.30;99.90;;;;;;4965619;28;20571;-85
2023/03/18 08:39:04;;;;;;;;;;;7.30;99.90;;;;;;4965503;28;19934;-86
2023/03/18 08:41:31;;;;;;;;;;;7.30;99.90;;;;;;4958130;28;19957;-85
2023/03/18 08:43:58;;;;;;;;;;;7.30;99.90;;;;;;4958904;28;19931;-87
2023/03/18 08:46:26;;;;;;;;;;;7.30;99.90;;;;;;4971270;28;20336;-86
2023/03/18 08:48:54;;;;;;;;;;;7.40;99.90;;;;;;4984813;28;19977;-86
2023/03/18 08:51:22;;;;;;;;;;;7.50;99.90;;;;;;4970894;28;19953;-86
2023/03/18 08:53:49;;;;;;;;;;;7.40;99.90;;;;;;4977261;28;19927;-86
2023/03/18 08:56:15;;;;;;;;;;;7.40;99.90;;;;;;4977255;28;20304;-86
2023/03/18 08:58:43;;;;;;;;;;;7.50;99.90;;;;;;4987171;28;19949;-86
2023/03/18 09:01:10;;;;;;;;;;;7.40;99.90;;;;;;4982331;28;19930;-87
2023/03/18 09:03:38;;;;;;;;;;;7.40;99.90;;;;;;4978639;28;19949;-86
2023/03/18 09:06:05;;;;;;;;;;;7.50;99.90;;;;;;4970988;28;20265;-87
2023/03/18 09:08:32;;;;;;;;;;;7.50;99.90;;;;;;4973228;28;19937;-86
2023/03/18 09:11:00;;;;;;;;;;;7.50;99.90;;;;;;4989507;28;19964;-86
2023/03/18 09:13:27;;;;;;;;;;;7.60;99.90;;;;;;4961902;28;19966;-86
2023/03/18 09:15:54;;;;;;;;;;;7.70;99.90;;;;;;4976976;28;19934;-85
2023/03/18 09:18:21;;;;;;;;;;;7.70;99.90;;;;;;4991332;28;19941;-85
2023/03/18 09:20:50;;;;;;;;;;;7.70;99.90;;;;;;4970169;28;19937;-85
2023/03/18 09:23:17;;;;;;;;;;;7.70;99.90;;;;;;4969787;28;19934;-86
2023/03/18 09:25:45;;;;;;;;;;;7.70;99.90;;;;;;4968878;28;19926;-85
2023/03/18 09:28:12;;;;;;;;;;;7.80;99.90;;;;;;4969058;28;20369;-86
2023/03/18 09:30:40;;;;;;;;;;;7.80;99.90;;;;;;4968710;28;19933;-85
2023/03/18 09:33:08;;;;;;;;;;;7.80;99.90;;;;;;4971634;28;19942;-86
2023/03/18 09:35:35;;;;;;;;;;;7.90;99.90;;;;;;4969515;28;19933;-87
2023/03/18 09:38:03;;;;;;;;;;;8.00;99.90;;;;;;4970457;28;20274;-85
2023/03/18 09:40:31;;;;;;;;;;;8.00;99.90;;;;;;4968078;28;20742;-86
2023/03/18 09:43:01;;;;;;;;;;;8.00;99.90;;;;;;4967943;28;19932;-85
2023/03/18 09:45:30;;;;;;;;;;;8.00;99.90;;;;;;4974660;28;19934;-86
2023/03/18 09:48:08;;;;;;;;;;;8.00;99.90;;;;;;4981087;28;20396;-84
2023/03/18 09:50:38;;;;;;;;;;;8.00;99.90;;;;;;4973152;28;20073;-86
2023/03/18 09:53:19;;;;;;;;;;;8.00;99.90;;;;;;4980950;28;19957;-86
2023/03/18 09:55:49;;;;;;;;;;;8.10;99.90;;;;;;4971767;28;19926;-86
2023/03/18 09:58:18;;;;;;;;;;;8.10;99.90;;;;;;4967687;28;19936;-85
2023/03/18 10:00:45;;;;;;;;;;;8.10;99.90;;;;;;4984196;28;19930;-86
2023/03/18 10:03:14;;;;;;;;;;;8.10;99.90;;;;;;4984385;28;19926;-86
2023/03/18 10:05:44;;;;;;;;;;;8.10;99.90;;;;;;4967773;28;19934;-83
2023/03/18 10:08:14;;;;;;;;;;;8.20;99.90;;;;;;4965265;28;19930;-86
2023/03/18 10:10:45;;;;;;;;;;;8.20;99.90;;;;;;4981629;28;20116;-84
2023/03/18 10:13:16;;;;;;;;;;;8.20;99.90;;;;;;4986637;28;20059;-87
2023/03/18 10:15:44;;;;;;;;;;;8.30;99.90;;;;;;4984365;28;19933;-82
2023/03/18 10:18:12;;;;;;;;;;;8.50;99.90;;;;;;4971204;28;20451;-84
2023/03/18 10:20:47;;;;;;;;;;;8.60;99.90;;;;;;4971217;28;20024;-85
2023/03/18 10:23:17;;;;;;;;;;;8.60;99.90;;;;;;4983159;28;20075;-84
2023/03/18 10:25:49;;;;;;;;;;;8.60;99.90;;;;;;4982227;28;19932;-85
2023/03/18 10:28:26;;;;;;;;;;;8.60;99.90;;;;;;4966812;28;19926;-84
2023/03/18 10:30:56;;;;;;;;;;;9.40;99.90;;;;;;4979631;28;19934;-85
2023/03/18 10:33:28;;;;;;;;;;;10.00;99.90;;;;;;4960464;28;19973;-85
2023/03/18 10:35:59;;;;;;;;;;;10.40;99.90;;;;;;4981309;28;19977;-85
2023/03/18 10:38:29;;;;;;;;;;;10.60;99.90;;;;;;4982450;28;19930;-85
2023/03/18 10:40:58;;;;;;;;;;;11.00;99.90;;;;;;4959321;28;19926;-85
2023/03/18 10:43:27;;;;;;;;;;;11.40;98.20;;;;;;4968808;28;19937;-84
2023/03/18 10:46:00;;;;;;;;;;;11.60;96.80;;;;;;4976876;28;19957;-85
2023/03/18 10:48:29;;;;;;;;;;;11.70;96.10;;;;;;4959696;28;20309;-86
2023/03/18 10:51:01;;;;;;;;;;;11.80;96.20;;;;;;4959392;28;20311;-85
2023/03/18 10:53:29;;;;;;;;;;;11.90;95.40;;;;;;4965453;28;19969;-85
2023/03/18 10:55:59;;;;;;;;;;;11.80;95.00;;;;;;4965255;28;20467;-85
2023/03/18 10:58:27;;;;;;;;;;;11.70;95.00;;;;;;4958709;28;20008;-85
2023/03/18 11:00:54;;;;;;;;;;;11.70;95.80;;;;;;4972100;28;19926;-85
2023/03/18 11:03:24;;;;;;;;;;;11.70;94.70;;;;;;4966098;28;19930;-84
2023/03/18 11:05:52;;;;;;;;;;;12.10;99.90;;;;;;4962141;28;20415;-84
2023/03/18 11:08:31;;;;;;;;;;;12.40;93.90;;;;;;4965210;28;19992;-85
2023/03/18 11:11:02;;;;;;;;;;;12.80;93.20;;;;;;4971014;28;20473;-85
2023/03/18 11:13:30;;;;;;;;;;;;;;;;;;4980380;28;20100;-85
2023/03/18 11:15:57;;;;;;;;;;;13.00;91.10;;;;;;4964223;28;19933;-84
2023/03/18 11:18:25;;;;;;;;;;;12.90;91.50;;;;;;4975018;28;20281;-85
2023/03/18 11:20:58;;;;;;;;;;;12.80;90.50;;;;;;4957879;28;19934;-84
2023/03/18 11:23:45;;;;;;;;;;;12.90;90.30;;;;;;4977581;28;19926;-85
2023/03/18 11:26:20;;;;;;;;;;;12.90;90.00;;;;;;4965261;28;19930;-84
2023/03/18 11:28:47;;;;;;;;;;;13.30;89.10;;;;;;4970720;28;19965;-85
2023/03/18 11:31:16;;;;;;;;;;;13.20;88.10;;;;;;4971557;28;19932;-86
2023/03/18 11:33:43;;;;;;;;;;;13.10;87.30;;;;;;4959837;28;19949;-84
2023/03/18 11:36:14;;;;;;;;;;;13.10;88.50;;;;;;4966149;28;19930;-81
2023/03/18 11:38:42;;;;;;;;;;;12.70;90.50;;;;;;4977808;28;20206;-85
2023/03/18 11:41:13;;;;;;;;;;;12.40;92.30;;;;;;4953792;28;20034;-84
2023/03/18 11:43:54;;;;;;;;;;;12.30;92.10;;;;;;4965971;28;19985;-85
2023/03/18 11:46:22;;;;;;;;;;;13.00;90.30;;;;;;4962282;28;20456;-82
2023/03/18 11:48:48;;;;;;;;;;;13.60;87.70;;;;;;4958173;28;19930;-78
2023/03/18 11:51:28;;;;;;;;;;;14.00;82.60;;;;;;4965761;28;20377;-81
2023/03/18 11:54:01;;;;;;;;;;;14.50;82.50;;;;;;4966539;28;20072;-73
2023/03/18 11:56:31;;;;;;;;;;;14.00;86.80;;;;;;4950450;28;19927;-74
2023/03/18 11:59:11;;;;;;;;;;;13.40;86.80;;;;;;4957545;28;20412;-76
2023/03/18 12:01:43;;;;;;;;;;;13.20;87.80;;;;;;4969683;28;19991;-74
2023/03/18 12:04:10;;;;;;;;;;;;;;;;;;4970906;28;19932;-74
2023/03/18 12:06:41;;;;;;;;;;;12.90;88.60;;;;;;4955665;28;19965;-76
2023/03/18 12:09:11;;;;;;;;;;;12.80;89.60;;;;;;4963962;28;19926;-81
2023/03/18 12:11:56;;;;;;;;;;;12.80;90.00;;;;;;4967061;28;20476;-78
2023/03/18 12:14:27;;;;;;;;;;;12.80;90.10;;;;;;4967719;28;20012;-81
2023/03/18 12:17:02;;;;;;;;;;;12.70;91.20;;;;;;4960606;28;20409;-82
2023/03/18 12:19:38;;;;;;;;;;;12.60;91.60;;;;;;4959647;28;19926;-87
2023/03/18 12:22:12;;;;;;;;;;;12.40;93.30;;;;;;4966329;28;20024;-86
2023/03/18 12:24:50;;;;;;;;;;;12.30;94.50;;;;;;4980180;28;19926;-86
2023/03/18 12:27:20;;;;;;;;;;;12.20;95.00;;;;;;4989286;28;19930;-87
2023/03/18 12:29:59;;;;;;;;;;;12.30;94.20;;;;;;4985699;28;19945;-86
2023/03/18 12:32:29;;;;;;;;;;;12.20;94.80;;;;;;4984141;28;19988;-86
2023/03/18 12:35:02;;;;;;;;;;;12.20;95.40;;;;;;4977878;28;19961;-86
2023/03/18 12:37:34;;;;;;;;;;;12.30;95.30;;;;;;4967095;28;19934;-87
2023/03/18 12:40:11;;;;;;;;;;;12.30;95.30;;;;;;4970644;28;20508;-86
2023/03/18 12:42:48;;;;;;;;;;;12.30;95.60;;;;;;4969641;28;19937;-86
2023/03/18 12:45:19;;;;;;;;;;;12.30;95.50;;;;;;4984749;28;19954;-87
2023/03/18 12:47:48;;;;;;;;;;;12.30;97.00;;;;;;4972967;28;19926;-87
2023/03/18 12:50:16;;;;;;;;;;;12.30;96.90;;;;;;4977633;28;19926;-86
2023/03/18 12:52:44;;;;;;;;;;;12.20;98.80;;;;;;4965913;28;19931;-87
2023/03/18 12:55:14;;;;;;;;;;;12.30;98.10;;;;;;4984827;28;19981;-86
2023/03/18 12:57:43;;;;;;;;;;;12.30;99.10;;;;;;4973542;28;19957;-87
2023/03/18 13:00:22;;;;;;;;;;;12.20;99.90;;;;;;4972259;28;19934;-86
2023/03/18 13:02:53;;;;;;;;;;;12.30;98.70;;;;;;4964371;28;21063;-86
2023/03/18 13:05:23;;;;;;;;;;;12.30;99.90;;;;;;4977614;28;20361;-87
2023/03/18 13:07:54;;;;;;;;;;;12.30;98.90;;;;;;4966619;28;20154;-86
2023/03/18 13:10:22;;;;;;;;;;;12.40;98.60;;;;;;4969671;28;20377;-87
2023/03/18 13:12:51;;;;;;;;;;;12.40;99.90;;;;;;4972980;28;19961;-85
2023/03/18 13:15:25;;;;;;;;;;;12.40;99.90;;;;;;4968047;28;19941;-86
2023/03/18 13:17:55;;;;;;;;;;;12.50;99.90;;;;;;4987739;28;19926;-86
2023/03/18 13:20:23;;;;;;;;;;;12.40;99.90;;;;;;4986245;28;19926;-87
2023/03/18 13:23:01;;;;;;;;;;;12.40;99.90;;;;;;4994436;28;19932;-86
2023/03/18 13:25:34;;;;;;;;;;;12.40;99.90;;;;;;5000236;28;19989;-86
2023/03/18 13:28:07;;;;;;;;;;;12.50;99.90;;;;;;4983757;28;19979;-87
2023/03/18 13:30:44;;;;;;;;;;;12.50;99.90;;;;;;4982243;28;19933;-87
2023/03/18 13:33:21;;;;;;;;;;;12.40;99.90;;;;;;4981364;28;19933;-87
2023/03/18 13:36:06;;;;;;;;;;;12.50;99.90;;;;;;4968179;28;19965;-85
2023/03/18 13:38:42;;;;;;;;;;;12.50;99.90;;;;;;4968589;28;19930;-87
2023/03/18 13:41:31;;;;;;;;;;;12.50;99.90;;;;;;4975135;28;20021;-87
2023/03/18 13:43:59;;;;;;;;;;;12.50;99.90;;;;;;4963551;28;21571;-86
2023/03/18 13:46:29;;;;;;;;;;;12.60;99.90;;;;;;4962461;28;19926;-87
2023/03/18 13:48:57;;;;;;;;;;;12.60;99.90;;;;;;4971409;28;19926;-86
2023/03/18 13:51:39;;;;;;;;;;;12.60;99.90;;;;;;4979879;28;19934;-87
2023/03/18 13:54:12;;;;;;;;;;;12.70;99.90;;;;;;4966814;28;19950;-86
2023/03/18 13:56:47;;;;;;;;;;;12.70;99.90;;;;;;4984046;28;20294;-86
2023/03/18 13:59:28;;;;;;;;;;;12.70;99.90;;;;;;4966137;28;19930;-87
2023/03/18 14:01:58;;;;;;;;;;;12.70;99.90;;;;;;4965132;28;20023;-87
2023/03/18 14:04:32;;;;;;;;;;;12.80;99.90;;;;;;4973865;28;19941;-93
2023/03/18 14:07:14;;;;;;;;;;;12.80;99.90;;;;;;4991011;28;19982;-88
2023/03/18 14:09:51;;;;;;;;;;;12.90;99.90;;;;;;4972121;28;19926;-81
2023/03/18 14:12:23;;;;;;;;;;;13.00;99.90;;;;;;4967720;28;19949;-80
2023/03/18 14:15:00;;;;;;;;;;;13.20;99.90;;;;;;4983922;28;19994;-80
2023/03/18 14:17:33;;;;;;;;;;;13.10;99.90;;;;;;4977887;28;19934;-87
2023/03/18 14:20:17;;;;;;;;;;;13.10;99.90;;;;;;4964356;28;20010;-87
2023/03/18 14:22:45;;;;;;;;;;;13.10;99.90;;;;;;4977622;28;19926;-87
2023/03/18 14:25:20;;;;;;;;;;;13.30;99.90;;;;;;4983267;28;19926;-88
2023/03/18 14:27:49;;;;;;;;;;;13.30;99.90;;;;;;4970533;28;20028;-87
2023/03/18 14:30:34;;;;;;;;;;;13.30;99.90;;;;;;4974903;28;19925;-87
2023/03/18 14:33:04;;;;;;;;;;;13.30;99.90;;;;;;4966925;28;19933;-87
2023/03/18 14:35:34;;;;;;;;;;;13.40;99.90;;;;;;4968256;28;19926;-88
2023/03/18 14:38:04;;;;;;;;;;;13.40;99.90;;;;;;4969988;28;19930;-86
2023/03/18 14:40:35;;;;;;;;;;;13.30;99.90;;;;;;4986678;28;19989;-87
2023/03/18 14:43:03;;;;;;;;;;;13.40;99.90;;;;;;4968388;28;19926;-87